sensor_id;sensor_type;location;lat;lon;timestamp;temperature;humidity
37322;DHT22;23697;48.684;9.032;2022-10-22T00:00:08;12.50;90.90
37322;DHT22;23697;48.684;9.032;2022-10-22T00:02:36;12.50;91.00
37322;DHT22;23697;48.684;9.032;2022-10-22T00:05:03;12.50;91.00
37322;DHT22;23697;48.684;9.032;2022-10-22T00:07:31;12.40;91.00
37322;DHT22;23697;48.684;9.032;2022-10-22T00:09:58;12.40;91.00
37322;DHT22;23697;48.684;9.032;2022-10-22T00:12:26;12.40;91.10
37322;DHT22;23697;48.684;9.032;2022-10-22T00:14:53;12.30;91.00
37322;DHT22;23697;48.684;9.032;2022-10-22T00:17:21;12.30;91.00
37322;DHT22;23697;48.684;9.032;2022-10-22T00:19:48;12.40;91.10
37322;DHT22;23697;48.684;9.032;2022-10-22T00:22:15;12.30;91.10
37322;DHT22;23697;48.684;9.032;2022-10-22T00:24:42;12.40;91.20
37322;DHT22;23697;48.684;9.032;2022-10-22T00:27:10;12.30;91.20
37322;DHT22;23697;48.684;9.032;2022-10-22T00:29:37;12.30;91.20
37322;DHT22;23697;48.684;9.032;2022-10-22T00:32:04;12.30;91.30
37322;DHT22;23697;48.684;9.032;2022-10-22T00:34:33;12.30;91.30
37322;DHT22;23697;48.684;9.032;2022-10-22T00:36:59;12.40;91.30
37322;DHT22;23697;48.684;9.032;2022-10-22T00:39:27;12.30;91.30
37322;DHT22;23697;48.684;9.032;2022-10-22T00:41:55;12.40;91.30
37322;DHT22;23697;48.684;9.032;2022-10-22T00:44:59;12.30;91.30
37322;DHT22;23697;48.684;9.032;2022-10-22T00:47:28;12.30;91.30
37322;DHT22;23697;48.684;9.032;2022-10-22T00:49:58;12.40;91.20
37322;DHT22;23697;48.684;9.032;2022-10-22T00:52:26;12.30;91.30
37322;DHT22;23697;48.684;9.032;2022-10-22T00:54:53;12.40;91.30
37322;DHT22;23697;48.684;9.032;2022-10-22T00:57:21;12.40;91.30
37322;DHT22;23697;48.684;9.032;2022-10-22T00:59:49;12.40;91.30
37322;DHT22;23697;48.684;9.032;2022-10-22T01:02:16;12.40;91.30
37322;DHT22;23697;48.684;9.032;2022-10-22T01:04:43;12.40;91.30
37322;DHT22;23697;48.684;9.032;2022-10-22T01:07:15;12.40;91.30
37322;DHT22;23697;48.684;9.032;2022-10-22T01:09:47;12.40;91.30
37322;DHT22;23697;48.684;9.032;2022-10-22T01:12:22;12.40;91.30
37322;DHT22;23697;48.684;9.032;2022-10-22T01:15:02;12.30;91.30
37322;DHT22;23697;48.684;9.032;2022-10-22T01:17:37;12.30;91.40
37322;DHT22;23697;48.684;9.032;2022-10-22T01:20:13;12.30;91.40
37322;DHT22;23697;48.684;9.032;2022-10-22T01:22:52;12.30;91.50
37322;DHT22;23697;48.684;9.032;2022-10-22T01:25:30;12.30;91.60
37322;DHT22;23697;48.684;9.032;2022-10-22T01:28:05;12.20;91.60
37322;DHT22;23697;48.684;9.032;2022-10-22T01:30:37;12.20;91.60
37322;DHT22;23697;48.684;9.032;2022-10-22T01:33:07;12.30;91.60
37322;DHT22;23697;48.684;9.032;2022-10-22T01:35:36;12.20;91.60
37322;DHT22;23697;48.684;9.032;2022-10-22T01:38:06;12.20;91.60
37322;DHT22;23697;48.684;9.032;2022-10-22T01:40:34;12.20;91.70
37322;DHT22;23697;48.684;9.032;2022-10-22T01:43:04;12.20;91.70
37322;DHT22;23697;48.684;9.032;2022-10-22T01:45:35;12.20;91.70
37322;DHT22;23697;48.684;9.032;2022-10-22T01:48:15;12.20;91.70
37322;DHT22;23697;48.684;9.032;2022-10-22T01:50:56;12.20;91.70
37322;DHT22;23697;48.684;9.032;2022-10-22T01:53:32;12.10;91.70
37322;DHT22;23697;48.684;9.032;2022-10-22T01:56:25;12.10;91.70
37322;DHT22;23697;48.684;9.032;2022-10-22T01:59:03;12.10;91.70
37322;DHT22;23697;48.684;9.032;2022-10-22T02:01:36;12.20;91.70
37322;DHT22;23697;48.684;9.032;2022-10-22T02:04:16;12.20;91.70
37322;DHT22;23697;48.684;9.032;2022-10-22T02:07:09;12.20;91.70
37322;DHT22;23697;48.684;9.032;2022-10-22T02:09:38;12.20;91.70
37322;DHT22;23697;48.684;9.032;2022-10-22T02:12:07;12.20;91.70
37322;DHT22;23697;48.684;9.032;2022-10-22T02:14:37;12.20;91.80
37322;DHT22;23697;48.684;9.032;2022-10-22T02:17:08;12.20;91.80
37322;DHT22;23697;48.684;9.032;2022-10-22T02:19:45;12.20;91.80
37322;DHT22;23697;48.684;9.032;2022-10-22T02:22:13;12.10;91.80
37322;DHT22;23697;48.684;9.032;2022-10-22T02:24:40;12.20;91.80
37322;DHT22;23697;48.684;9.032;2022-10-22T02:27:11;12.20;91.80
37322;DHT22;23697;48.684;9.032;2022-10-22T02:29:44;12.20;91.80
37322;DHT22;23697;48.684;9.032;2022-10-22T02:32:17;12.10;91.80
37322;DHT22;23697;48.684;9.032;2022-10-22T02:34:46;12.20;91.80
37322;DHT22;23697;48.684;9.032;2022-10-22T02:37:15;12.20;91.80
37322;DHT22;23697;48.684;9.032;2022-10-22T02:39:42;12.10;91.80
37322;DHT22;23697;48.684;9.032;2022-10-22T02:42:10;12.20;91.90
37322;DHT22;23697;48.684;9.032;2022-10-22T02:44:37;12.10;91.90
37322;DHT22;23697;48.684;9.032;2022-10-22T02:47:04;12.10;91.90
37322;DHT22;23697;48.684;9.032;2022-10-22T02:49:31;12.10;91.90
37322;DHT22;23697;48.684;9.032;2022-10-22T02:52:00;12.10;91.90
37322;DHT22;23697;48.684;9.032;2022-10-22T02:54:26;12.10;92.00
37322;DHT22;23697;48.684;9.032;2022-10-22T02:56:53;12.10;91.90
37322;DHT22;23697;48.684;9.032;2022-10-22T02:59:20;12.10;91.90
37322;DHT22;23697;48.684;9.032;2022-10-22T03:01:47;12.20;91.90
37322;DHT22;23697;48.684;9.032;2022-10-22T03:04:14;12.10;91.90
37322;DHT22;23697;48.684;9.032;2022-10-22T03:06:41;12.10;91.80
37322;DHT22;23697;48.684;9.032;2022-10-22T03:09:10;12.10;91.80
37322;DHT22;23697;48.684;9.032;2022-10-22T03:11:37;12.10;91.80
37322;DHT22;23697;48.684;9.032;2022-10-22T03:14:03;12.20;91.90
37322;DHT22;23697;48.684;9.032;2022-10-22T03:16:30;12.10;91.90
37322;DHT22;23697;48.684;9.032;2022-10-22T03:18:57;12.10;91.80
37322;DHT22;23697;48.684;9.032;2022-10-22T03:21:30;12.10;91.90
37322;DHT22;23697;48.684;9.032;2022-10-22T03:23:59;12.10;91.80
37322;DHT22;23697;48.684;9.032;2022-10-22T03:26:28;12.10;91.80
37322;DHT22;23697;48.684;9.032;2022-10-22T03:28:55;12.10;91.80
37322;DHT22;23697;48.684;9.032;2022-10-22T03:31:22;12.10;91.70
37322;DHT22;23697;48.684;9.032;2022-10-22T03:33:49;12.10;91.70
37322;DHT22;23697;48.684;9.032;2022-10-22T03:36:15;12.10;91.70
37322;DHT22;23697;48.684;9.032;2022-10-22T03:38:42;12.10;91.70
37322;DHT22;23697;48.684;9.032;2022-10-22T03:41:09;12.10;91.80
37322;DHT22;23697;48.684;9.032;2022-10-22T03:43:38;12.10;91.80
37322;DHT22;23697;48.684;9.032;2022-10-22T03:46:05;12.10;91.80
37322;DHT22;23697;48.684;9.032;2022-10-22T03:48:32;12.10;91.80
37322;DHT22;23697;48.684;9.032;2022-10-22T03:50:59;12.00;91.80
37322;DHT22;23697;48.684;9.032;2022-10-22T03:53:26;12.10;91.80
37322;DHT22;23697;48.684;9.032;2022-10-22T03:55:52;12.00;91.90
37322;DHT22;23697;48.684;9.032;2022-10-22T03:58:19;12.00;91.90
37322;DHT22;23697;48.684;9.032;2022-10-22T04:00:47;12.00;91.90
37322;DHT22;23697;48.684;9.032;2022-10-22T04:03:14;11.90;92.00
37322;DHT22;23697;48.684;9.032;2022-10-22T04:05:41;12.00;92.00
37322;DHT22;23697;48.684;9.032;2022-10-22T04:08:08;11.90;92.00
37322;DHT22;23697;48.684;9.032;2022-10-22T04:10:35;11.90;92.00
37322;DHT22;23697;48.684;9.032;2022-10-22T04:13:01;11.90;92.00
37322;DHT22;23697;48.684;9.032;2022-10-22T04:15:28;11.90;92.10
37322;DHT22;23697;48.684;9.032;2022-10-22T04:17:58;11.90;92.10
37322;DHT22;23697;48.684;9.032;2022-10-22T04:20:25;11.90;92.10
37322;DHT22;23697;48.684;9.032;2022-10-22T04:22:51;11.90;92.10
37322;DHT22;23697;48.684;9.032;2022-10-22T04:25:18;11.80;92.10
37322;DHT22;23697;48.684;9.032;2022-10-22T04:27:45;11.80;92.10
37322;DHT22;23697;48.684;9.032;2022-10-22T04:30:13;11.80;92.10
37322;DHT22;23697;48.684;9.032;2022-10-22T04:32:39;11.80;92.10
37322;DHT22;23697;48.684;9.032;2022-10-22T04:35:09;11.80;92.10
37322;DHT22;23697;48.684;9.032;2022-10-22T04:37:36;11.70;92.10
37322;DHT22;23697;48.684;9.032;2022-10-22T04:40:03;11.80;92.10
37322;DHT22;23697;48.684;9.032;2022-10-22T04:42:30;11.70;92.10
37322;DHT22;23697;48.684;9.032;2022-10-22T04:44:57;11.60;92.10
37322;DHT22;23697;48.684;9.032;2022-10-22T04:47:24;11.70;92.10
37322;DHT22;23697;48.684;9.032;2022-10-22T04:49:51;11.70;92.10
37322;DHT22;23697;48.684;9.032;2022-10-22T04:52:19;11.70;92.10
37322;DHT22;23697;48.684;9.032;2022-10-22T04:54:46;11.70;92.10
37322;DHT22;23697;48.684;9.032;2022-10-22T04:57:13;11.60;92.20
37322;DHT22;23697;48.684;9.032;2022-10-22T04:59:39;11.60;92.10
37322;DHT22;23697;48.684;9.032;2022-10-22T05:02:06;11.70;92.20
37322;DHT22;23697;48.684;9.032;2022-10-22T05:04:33;11.60;92.10
37322;DHT22;23697;48.684;9.032;2022-10-22T05:07:01;11.60;92.10
37322;DHT22;23697;48.684;9.032;2022-10-22T05:09:29;11.60;92.10
37322;DHT22;23697;48.684;9.032;2022-10-22T05:11:56;11.60;92.20
37322;DHT22;23697;48.684;9.032;2022-10-22T05:14:23;11.60;92.10
37322;DHT22;23697;48.684;9.032;2022-10-22T05:16:51;11.60;92.10
37322;DHT22;23697;48.684;9.032;2022-10-22T05:19:19;11.50;92.10
37322;DHT22;23697;48.684;9.032;2022-10-22T05:21:48;11.60;92.10
37322;DHT22;23697;48.684;9.032;2022-10-22T05:24:15;11.60;92.10
37322;DHT22;23697;48.684;9.032;2022-10-22T05:26:54;11.60;92.10
37322;DHT22;23697;48.684;9.032;2022-10-22T05:29:37;11.60;92.00
37322;DHT22;23697;48.684;9.032;2022-10-22T05:32:04;11.60;92.00
37322;DHT22;23697;48.684;9.032;2022-10-22T05:34:35;11.50;92.00
37322;DHT22;23697;48.684;9.032;2022-10-22T05:37:02;11.60;92.00
37322;DHT22;23697;48.684;9.032;2022-10-22T05:39:29;11.60;92.00
37322;DHT22;23697;48.684;9.032;2022-10-22T05:41:57;11.60;91.90
37322;DHT22;23697;48.684;9.032;2022-10-22T05:44:24;11.60;91.90
37322;DHT22;23697;48.684;9.032;2022-10-22T05:46:51;11.60;91.80
37322;DHT22;23697;48.684;9.032;2022-10-22T05:49:18;11.60;91.90
37322;DHT22;23697;48.684;9.032;2022-10-22T05:51:44;11.60;91.80
37322;DHT22;23697;48.684;9.032;2022-10-22T05:54:16;11.60;91.80
37322;DHT22;23697;48.684;9.032;2022-10-22T05:56:43;11.60;91.80
37322;DHT22;23697;48.684;9.032;2022-10-22T05:59:11;11.60;91.70
37322;DHT22;23697;48.684;9.032;2022-10-22T06:01:39;11.60;91.70
37322;DHT22;23697;48.684;9.032;2022-10-22T06:04:10;11.60;91.70
37322;DHT22;23697;48.684;9.032;2022-10-22T06:06:39;11.60;91.70
37322;DHT22;23697;48.684;9.032;2022-10-22T06:09:13;11.70;91.70
37322;DHT22;23697;48.684;9.032;2022-10-22T06:11:42;11.60;91.60
37322;DHT22;23697;48.684;9.032;2022-10-22T06:14:09;11.70;91.70
37322;DHT22;23697;48.684;9.032;2022-10-22T06:16:38;11.60;91.70
37322;DHT22;23697;48.684;9.032;2022-10-22T06:19:05;11.70;91.70
37322;DHT22;23697;48.684;9.032;2022-10-22T06:21:32;11.70;91.60
37322;DHT22;23697;48.684;9.032;2022-10-22T06:24:00;11.70;91.60
37322;DHT22;23697;48.684;9.032;2022-10-22T06:26:27;11.70;91.70
37322;DHT22;23697;48.684;9.032;2022-10-22T06:28:54;11.70;91.70
37322;DHT22;23697;48.684;9.032;2022-10-22T06:31:21;11.70;91.70
37322;DHT22;23697;48.684;9.032;2022-10-22T06:33:49;11.70;91.70
37322;DHT22;23697;48.684;9.032;2022-10-22T06:36:19;11.70;91.80
37322;DHT22;23697;48.684;9.032;2022-10-22T06:38:46;11.80;91.80
37322;DHT22;23697;48.684;9.032;2022-10-22T06:41:14;11.80;91.80
37322;DHT22;23697;48.684;9.032;2022-10-22T06:43:42;11.90;91.80
37322;DHT22;23697;48.684;9.032;2022-10-22T06:46:15;12.00;91.90
37322;DHT22;23697;48.684;9.032;2022-10-22T06:48:46;12.00;91.80
37322;DHT22;23697;48.684;9.032;2022-10-22T06:51:16;12.00;91.70
37322;DHT22;23697;48.684;9.032;2022-10-22T06:53:47;12.10;91.70
37322;DHT22;23697;48.684;9.032;2022-10-22T06:56:15;12.10;91.70
37322;DHT22;23697;48.684;9.032;2022-10-22T06:58:42;12.10;91.70
37322;DHT22;23697;48.684;9.032;2022-10-22T07:01:11;12.10;91.60
37322;DHT22;23697;48.684;9.032;2022-10-22T07:03:39;12.20;91.60
37322;DHT22;23697;48.684;9.032;2022-10-22T07:06:08;12.20;91.60
37322;DHT22;23697;48.684;9.032;2022-10-22T07:08:37;12.20;91.60
37322;DHT22;23697;48.684;9.032;2022-10-22T07:11:05;12.20;91.60
37322;DHT22;23697;48.684;9.032;2022-10-22T07:13:33;12.30;91.60
37322;DHT22;23697;48.684;9.032;2022-10-22T07:16:00;12.30;91.60
37322;DHT22;23697;48.684;9.032;2022-10-22T07:18:28;12.40;91.50
37322;DHT22;23697;48.684;9.032;2022-10-22T07:20:55;12.40;91.50
37322;DHT22;23697;48.684;9.032;2022-10-22T07:23:23;12.40;91.50
37322;DHT22;23697;48.684;9.032;2022-10-22T07:25:51;12.50;91.50
37322;DHT22;23697;48.684;9.032;2022-10-22T07:28:18;12.40;91.50
37322;DHT22;23697;48.684;9.032;2022-10-22T07:30:46;12.50;91.50
37322;DHT22;23697;48.684;9.032;2022-10-22T07:33:13;12.50;91.50
37322;DHT22;23697;48.684;9.032;2022-10-22T07:35:42;12.50;91.40
37322;DHT22;23697;48.684;9.032;2022-10-22T07:38:09;12.60;91.40
37322;DHT22;23697;48.684;9.032;2022-10-22T07:40:36;12.50;91.40
37322;DHT22;23697;48.684;9.032;2022-10-22T07:43:05;12.60;91.40
37322;DHT22;23697;48.684;9.032;2022-10-22T07:45:32;12.60;91.40
37322;DHT22;23697;48.684;9.032;2022-10-22T07:47:59;12.60;91.40
37322;DHT22;23697;48.684;9.032;2022-10-22T07:50:26;12.60;91.30
37322;DHT22;23697;48.684;9.032;2022-10-22T07:52:53;12.60;91.30
37322;DHT22;23697;48.684;9.032;2022-10-22T07:55:20;12.70;91.30
37322;DHT22;23697;48.684;9.032;2022-10-22T07:57:47;12.70;91.30
37322;DHT22;23697;48.684;9.032;2022-10-22T08:00:16;12.80;91.30
37322;DHT22;23697;48.684;9.032;2022-10-22T08:02:43;12.90;91.20
37322;DHT22;23697;48.684;9.032;2022-10-22T08:05:09;13.00;91.20
37322;DHT22;23697;48.684;9.032;2022-10-22T08:07:38;13.10;91.20
37322;DHT22;23697;48.684;9.032;2022-10-22T08:10:06;13.10;91.20
37322;DHT22;23697;48.684;9.032;2022-10-22T08:12:33;13.10;90.90
37322;DHT22;23697;48.684;9.032;2022-10-22T08:15:00;13.10;90.90
37322;DHT22;23697;48.684;9.032;2022-10-22T08:17:28;13.20;91.00
37322;DHT22;23697;48.684;9.032;2022-10-22T08:19:55;13.40;91.00
37322;DHT22;23697;48.684;9.032;2022-10-22T08:22:22;13.80;91.00
37322;DHT22;23697;48.684;9.032;2022-10-22T08:24:49;14.10;90.80
37322;DHT22;23697;48.684;9.032;2022-10-22T08:27:16;14.20;90.40
37322;DHT22;23697;48.684;9.032;2022-10-22T08:29:42;14.40;90.10
37322;DHT22;23697;48.684;9.032;2022-10-22T08:32:10;14.60;90.10
37322;DHT22;23697;48.684;9.032;2022-10-22T08:34:38;14.60;89.60
37322;DHT22;23697;48.684;9.032;2022-10-22T08:37:05;14.70;89.50
37322;DHT22;23697;48.684;9.032;2022-10-22T08:39:36;14.90;89.40
37322;DHT22;23697;48.684;9.032;2022-10-22T08:42:13;15.10;88.90
37322;DHT22;23697;48.684;9.032;2022-10-22T08:44:58;15.30;88.90
37322;DHT22;23697;48.684;9.032;2022-10-22T08:47:38;15.60;88.70
37322;DHT22;23697;48.684;9.032;2022-10-22T08:50:14;15.70;88.50
37322;DHT22;23697;48.684;9.032;2022-10-22T08:52:45;15.90;88.50
37322;DHT22;23697;48.684;9.032;2022-10-22T08:55:16;16.20;88.40
37322;DHT22;23697;48.684;9.032;2022-10-22T08:57:50;16.40;88.20
37322;DHT22;23697;48.684;9.032;2022-10-22T09:00:21;16.50;86.90
37322;DHT22;23697;48.684;9.032;2022-10-22T09:02:58;16.60;86.90
37322;DHT22;23697;48.684;9.032;2022-10-22T09:05:41;16.80;87.00
37322;DHT22;23697;48.684;9.032;2022-10-22T09:08:10;17.00;86.30
37322;DHT22;23697;48.684;9.032;2022-10-22T09:10:44;17.10;84.10
37322;DHT22;23697;48.684;9.032;2022-10-22T09:13:16;17.10;83.20
37322;DHT22;23697;48.684;9.032;2022-10-22T09:15:44;17.10;84.70
37322;DHT22;23697;48.684;9.032;2022-10-22T09:18:21;17.20;84.40
37322;DHT22;23697;48.684;9.032;2022-10-22T09:20:54;17.40;84.60
37322;DHT22;23697;48.684;9.032;2022-10-22T09:23:30;17.60;84.60
37322;DHT22;23697;48.684;9.032;2022-10-22T09:25:59;17.70;83.50
37322;DHT22;23697;48.684;9.032;2022-10-22T09:28:26;17.70;82.60
37322;DHT22;23697;48.684;9.032;2022-10-22T09:30:52;17.80;82.30
37322;DHT22;23697;48.684;9.032;2022-10-22T09:33:23;17.80;81.40
37322;DHT22;23697;48.684;9.032;2022-10-22T09:35:55;17.90;82.00
37322;DHT22;23697;48.684;9.032;2022-10-22T09:38:25;17.90;79.20
37322;DHT22;23697;48.684;9.032;2022-10-22T09:40:54;17.90;81.40
37322;DHT22;23697;48.684;9.032;2022-10-22T09:43:21;18.10;82.10
37322;DHT22;23697;48.684;9.032;2022-10-22T09:45:55;18.20;81.30
37322;DHT22;23697;48.684;9.032;2022-10-22T09:48:33;18.30;80.00
37322;DHT22;23697;48.684;9.032;2022-10-22T09:51:07;18.40;79.80
37322;DHT22;23697;48.684;9.032;2022-10-22T09:53:41;18.50;79.10
37322;DHT22;23697;48.684;9.032;2022-10-22T09:56:32;18.60;79.40
37322;DHT22;23697;48.684;9.032;2022-10-22T09:59:01;18.70;77.20
37322;DHT22;23697;48.684;9.032;2022-10-22T10:01:31;18.90;78.80
37322;DHT22;23697;48.684;9.032;2022-10-22T10:04:02;19.00;78.70
37322;DHT22;23697;48.684;9.032;2022-10-22T10:06:32;19.10;77.30
37322;DHT22;23697;48.684;9.032;2022-10-22T10:08:59;19.10;76.20
37322;DHT22;23697;48.684;9.032;2022-10-22T10:11:35;19.10;73.70
37322;DHT22;23697;48.684;9.032;2022-10-22T10:14:08;19.10;75.60
37322;DHT22;23697;48.684;9.032;2022-10-22T10:17:26;19.10;75.00
37322;DHT22;23697;48.684;9.032;2022-10-22T10:20:08;19.20;74.90
37322;DHT22;23697;48.684;9.032;2022-10-22T10:22:46;19.20;75.10
37322;DHT22;23697;48.684;9.032;2022-10-22T10:25:29;19.20;75.30
37322;DHT22;23697;48.684;9.032;2022-10-22T10:28:08;19.30;74.40
37322;DHT22;23697;48.684;9.032;2022-10-22T10:30:47;19.30;73.30
37322;DHT22;23697;48.684;9.032;2022-10-22T10:33:25;19.30;74.10
37322;DHT22;23697;48.684;9.032;2022-10-22T10:35:59;19.30;72.50
37322;DHT22;23697;48.684;9.032;2022-10-22T10:38:38;19.40;71.50
37322;DHT22;23697;48.684;9.032;2022-10-22T10:44:45;19.50;72.90
37322;DHT22;23697;48.684;9.032;2022-10-22T10:47:44;19.10;71.50
37322;DHT22;23697;48.684;9.032;2022-10-22T10:50:23;19.10;73.20
37322;DHT22;23697;48.684;9.032;2022-10-22T10:52:59;19.30;73.70
37322;DHT22;23697;48.684;9.032;2022-10-22T10:55:33;19.40;73.80
37322;DHT22;23697;48.684;9.032;2022-10-22T10:58:11;19.50;71.40
37322;DHT22;23697;48.684;9.032;2022-10-22T11:00:46;19.60;72.00
37322;DHT22;23697;48.684;9.032;2022-10-22T11:03:46;19.60;71.20
37322;DHT22;23697;48.684;9.032;2022-10-22T11:06:19;19.60;71.80
37322;DHT22;23697;48.684;9.032;2022-10-22T11:08:50;19.70;71.10
37322;DHT22;23697;48.684;9.032;2022-10-22T11:11:29;19.80;68.20
37322;DHT22;23697;48.684;9.032;2022-10-22T11:14:00;19.90;66.90
37322;DHT22;23697;48.684;9.032;2022-10-22T11:16:33;19.90;69.30
37322;DHT22;23697;48.684;9.032;2022-10-22T11:19:04;20.00;71.00
37322;DHT22;23697;48.684;9.032;2022-10-22T11:21:37;20.10;67.30
37322;DHT22;23697;48.684;9.032;2022-10-22T11:24:11;19.90;68.80
37322;DHT22;23697;48.684;9.032;2022-10-22T11:26:45;19.70;70.30
37322;DHT22;23697;48.684;9.032;2022-10-22T11:29:16;19.50;68.30
37322;DHT22;23697;48.684;9.032;2022-10-22T11:31:45;19.50;70.00
37322;DHT22;23697;48.684;9.032;2022-10-22T11:34:17;19.40;70.70
37322;DHT22;23697;48.684;9.032;2022-10-22T11:36:46;19.30;69.50
37322;DHT22;23697;48.684;9.032;2022-10-22T11:39:29;19.50;71.40
37322;DHT22;23697;48.684;9.032;2022-10-22T11:42:02;19.70;69.70
37322;DHT22;23697;48.684;9.032;2022-10-22T11:44:29;20.00;69.30
37322;DHT22;23697;48.684;9.032;2022-10-22T11:47:07;20.00;64.40
37322;DHT22;23697;48.684;9.032;2022-10-22T11:49:46;20.00;65.70
37322;DHT22;23697;48.684;9.032;2022-10-22T11:52:37;19.70;66.10
37322;DHT22;23697;48.684;9.032;2022-10-22T11:55:33;19.50;66.60
37322;DHT22;23697;48.684;9.032;2022-10-22T11:58:27;19.60;69.90
37322;DHT22;23697;48.684;9.032;2022-10-22T12:00:55;19.60;66.50
37322;DHT22;23697;48.684;9.032;2022-10-22T12:03:38;19.80;67.80
37322;DHT22;23697;48.684;9.032;2022-10-22T12:06:18;20.10;67.80
37322;DHT22;23697;48.684;9.032;2022-10-22T12:08:49;20.30;67.80
37322;DHT22;23697;48.684;9.032;2022-10-22T12:11:26;20.30;63.50
37322;DHT22;23697;48.684;9.032;2022-10-22T12:14:15;20.40;65.50
37322;DHT22;23697;48.684;9.032;2022-10-22T12:16:47;20.30;64.00
37322;DHT22;23697;48.684;9.032;2022-10-22T12:19:25;20.30;62.90
37322;DHT22;23697;48.684;9.032;2022-10-22T12:21:54;20.40;61.30
37322;DHT22;23697;48.684;9.032;2022-10-22T12:24:23;20.40;62.10
37322;DHT22;23697;48.684;9.032;2022-10-22T12:26:51;20.50;63.10
37322;DHT22;23697;48.684;9.032;2022-10-22T12:29:20;20.60;60.80
37322;DHT22;23697;48.684;9.032;2022-10-22T12:31:51;20.30;61.60
37322;DHT22;23697;48.684;9.032;2022-10-22T12:34:21;19.80;61.80
37322;DHT22;23697;48.684;9.032;2022-10-22T12:36:50;19.70;63.20
37322;DHT22;23697;48.684;9.032;2022-10-22T12:39:19;19.60;61.10
37322;DHT22;23697;48.684;9.032;2022-10-22T12:41:55;19.80;61.80
37322;DHT22;23697;48.684;9.032;2022-10-22T12:44:23;20.10;62.90
37322;DHT22;23697;48.684;9.032;2022-10-22T12:46:51;20.10;60.70
37322;DHT22;23697;48.684;9.032;2022-10-22T12:49:37;20.40;63.50
37322;DHT22;23697;48.684;9.032;2022-10-22T12:52:07;20.60;61.90
37322;DHT22;23697;48.684;9.032;2022-10-22T12:54:50;20.90;62.60
37322;DHT22;23697;48.684;9.032;2022-10-22T12:57:21;21.00;61.30
37322;DHT22;23697;48.684;9.032;2022-10-22T12:59:51;21.10;60.50
37322;DHT22;23697;48.684;9.032;2022-10-22T13:02:20;21.10;58.60
37322;DHT22;23697;48.684;9.032;2022-10-22T13:05:15;21.10;59.60
37322;DHT22;23697;48.684;9.032;2022-10-22T13:07:45;21.10;59.70
37322;DHT22;23697;48.684;9.032;2022-10-22T13:10:16;21.10;60.00
37322;DHT22;23697;48.684;9.032;2022-10-22T13:12:49;21.00;61.10
37322;DHT22;23697;48.684;9.032;2022-10-22T13:15:33;21.00;59.80
37322;DHT22;23697;48.684;9.032;2022-10-22T13:18:02;20.90;59.00
37322;DHT22;23697;48.684;9.032;2022-10-22T13:20:29;20.90;60.20
37322;DHT22;23697;48.684;9.032;2022-10-22T13:22:58;20.70;60.10
37322;DHT22;23697;48.684;9.032;2022-10-22T13:25:28;20.60;59.90
37322;DHT22;23697;48.684;9.032;2022-10-22T13:27:56;20.30;59.00
37322;DHT22;23697;48.684;9.032;2022-10-22T13:30:26;20.30;61.30
37322;DHT22;23697;48.684;9.032;2022-10-22T13:32:55;20.40;61.80
37322;DHT22;23697;48.684;9.032;2022-10-22T13:35:25;20.50;62.20
37322;DHT22;23697;48.684;9.032;2022-10-22T13:37:53;20.50;61.70
37322;DHT22;23697;48.684;9.032;2022-10-22T13:40:20;20.30;62.30
37322;DHT22;23697;48.684;9.032;2022-10-22T13:42:47;20.20;61.60
37322;DHT22;23697;48.684;9.032;2022-10-22T13:45:14;20.20;61.40
37322;DHT22;23697;48.684;9.032;2022-10-22T13:47:45;20.20;60.50
37322;DHT22;23697;48.684;9.032;2022-10-22T13:50:17;20.20;60.80
37322;DHT22;23697;48.684;9.032;2022-10-22T13:52:47;20.20;57.30
37322;DHT22;23697;48.684;9.032;2022-10-22T13:55:16;20.20;60.30
37322;DHT22;23697;48.684;9.032;2022-10-22T13:57:44;20.20;59.20
37322;DHT22;23697;48.684;9.032;2022-10-22T14:00:14;20.10;60.80
37322;DHT22;23697;48.684;9.032;2022-10-22T14:02:43;20.00;59.90
37322;DHT22;23697;48.684;9.032;2022-10-22T14:05:10;19.90;60.60
37322;DHT22;23697;48.684;9.032;2022-10-22T14:07:37;19.80;60.50
37322;DHT22;23697;48.684;9.032;2022-10-22T14:10:16;19.80;60.90
37322;DHT22;23697;48.684;9.032;2022-10-22T14:12:43;19.80;61.30
37322;DHT22;23697;48.684;9.032;2022-10-22T14:15:11;19.80;60.90
37322;DHT22;23697;48.684;9.032;2022-10-22T14:17:39;19.70;59.60
37322;DHT22;23697;48.684;9.032;2022-10-22T14:20:14;19.80;58.90
37322;DHT22;23697;48.684;9.032;2022-10-22T14:22:43;19.80;60.60
37322;DHT22;23697;48.684;9.032;2022-10-22T14:25:13;19.80;60.80
37322;DHT22;23697;48.684;9.032;2022-10-22T14:27:40;19.80;60.30
37322;DHT22;23697;48.684;9.032;2022-10-22T14:30:08;19.90;61.10
37322;DHT22;23697;48.684;9.032;2022-10-22T14:32:35;19.70;59.80
37322;DHT22;23697;48.684;9.032;2022-10-22T14:35:02;19.60;60.00
37322;DHT22;23697;48.684;9.032;2022-10-22T14:37:30;19.60;58.90
37322;DHT22;23697;48.684;9.032;2022-10-22T14:39:57;19.60;60.70
37322;DHT22;23697;48.684;9.032;2022-10-22T14:42:27;19.50;58.00
37322;DHT22;23697;48.684;9.032;2022-10-22T14:44:55;19.60;59.00
37322;DHT22;23697;48.684;9.032;2022-10-22T14:47:22;19.60;59.00
37322;DHT22;23697;48.684;9.032;2022-10-22T14:49:49;19.60;59.30
37322;DHT22;23697;48.684;9.032;2022-10-22T14:52:16;19.50;61.20
37322;DHT22;23697;48.684;9.032;2022-10-22T14:54:44;19.50;62.40
37322;DHT22;23697;48.684;9.032;2022-10-22T14:57:13;19.40;62.30
37322;DHT22;23697;48.684;9.032;2022-10-22T14:59:41;19.20;61.80
37322;DHT22;23697;48.684;9.032;2022-10-22T15:02:10;19.20;61.30
37322;DHT22;23697;48.684;9.032;2022-10-22T15:04:38;19.10;62.00
37322;DHT22;23697;48.684;9.032;2022-10-22T15:07:05;19.10;61.70
37322;DHT22;23697;48.684;9.032;2022-10-22T15:09:32;19.00;62.80
37322;DHT22;23697;48.684;9.032;2022-10-22T15:12:00;18.90;63.90
37322;DHT22;23697;48.684;9.032;2022-10-22T15:14:27;18.90;62.60
37322;DHT22;23697;48.684;9.032;2022-10-22T15:16:54;18.90;63.00
37322;DHT22;23697;48.684;9.032;2022-10-22T15:19:21;18.80;63.10
37322;DHT22;23697;48.684;9.032;2022-10-22T15:21:48;18.70;62.40
37322;DHT22;23697;48.684;9.032;2022-10-22T15:24:15;18.70;62.80
37322;DHT22;23697;48.684;9.032;2022-10-22T15:26:42;18.60;63.80
37322;DHT22;23697;48.684;9.032;2022-10-22T15:29:10;18.50;65.50
37322;DHT22;23697;48.684;9.032;2022-10-22T15:31:43;18.40;65.00
37322;DHT22;23697;48.684;9.032;2022-10-22T15:34:10;18.30;64.90
37322;DHT22;23697;48.684;9.032;2022-10-22T15:36:37;18.20;64.80
37322;DHT22;23697;48.684;9.032;2022-10-22T15:39:08;18.10;65.80
37322;DHT22;23697;48.684;9.032;2022-10-22T15:41:35;18.00;66.40
37322;DHT22;23697;48.684;9.032;2022-10-22T15:44:03;17.90;66.40
37322;DHT22;23697;48.684;9.032;2022-10-22T15:46:32;17.80;67.40
37322;DHT22;23697;48.684;9.032;2022-10-22T15:48:59;17.60;68.50
37322;DHT22;23697;48.684;9.032;2022-10-22T15:51:26;17.50;69.20
37322;DHT22;23697;48.684;9.032;2022-10-22T15:53:54;17.30;69.80